Flight Track Log - Related Links

Times and Time Zones

All times are in EDT time to prevent confusion due to time zone crossing. See the SWA1319 flight status page for this flight to view local times or setup timezone preferences in your user account.

Time Position Orientation Groundspeed Altitude Reporting Facility
EDT Latitude Longitude Course Direction KTS MPH feet Rate Location/Type
Fri 08:44:35 AM 42.9500 -71.4167 14° North 171 197 1,400  Level KA90
Fri 08:45:24 AM 43.0000 -71.4000 14° North 209 241 3,500 2,680 Climbing KA90
Fri 08:47:52 AM 43.0458 -71.1844 74° East 279 321 10,200 2,481 Climbing Boston Center
Fri 08:48:52 AM 43.0756 -71.0503 73° East 316 364 12,100 2,150 Climbing Boston Center
Fri 08:49:52 AM 43.0406 -70.9344 112° Southeast 336 387 14,500 2,300 Climbing Boston Center
Fri 08:50:52 AM 42.9467 -70.9083 168° South 303 349 16,700 2,100 Climbing Boston Center
Fri 08:51:52 AM 42.8533 -70.9447 196° South 310 357 18,700 1,950 Climbing Boston Center
Fri 08:52:52 AM 42.7600 -70.9922 200° South 338 389 20,600 1,800 Climbing Boston Center
Fri 08:53:52 AM 42.6606 -71.0397 199° South 367 422 22,300 1,550 Climbing Boston Center
Fri 08:54:52 AM 42.5569 -71.0928 201° Southwest 388 447 23,700 1,400 Climbing Boston Center
Fri 08:55:52 AM 42.4472 -71.1431 199° South 406 467 25,100 1,550 Climbing Boston Center
Fri 08:56:52 AM 42.3503 -71.2264 212° Southwest 412 474 26,800 1,950 Climbing Boston Center
Fri 08:57:52 AM 42.2594 -71.3208 218° Southwest 417 480 29,000 1,950 Climbing Boston Center
Fri 08:58:52 AM 42.1789 -71.4008 216° Southwest 412 474 30,700 1,550 Climbing Boston Center
Fri 08:59:52 AM 42.0922 -71.4917 218° Southwest 406 467 32,100 1,400 Climbing Boston Center
Fri 09:00:52 AM 41.9950 -71.5825 215° Southwest 400 460 33,500 950 Climbing Boston Center
Fri 09:01:52 AM 41.9100 -71.6731 218° Southwest 400 460 34,000 250 Climbing Boston Center
Fri 09:02:52 AM 41.8211 -71.7631 217° Southwest 400 460 34,000  Level Boston Center
Fri 09:03:52 AM 41.7319 -71.8531 217° Southwest 400 460 34,000  Level Boston Center
Fri 09:04:52 AM 41.6531 -71.9317 217° Southwest 405 466 34,000  Level Boston Center
Fri 09:05:52 AM 41.5556 -72.0294 217° Southwest 405 466 34,000  Level Boston Center
Fri 09:06:52 AM 41.4747 -72.1131 218° Southwest 405 466 34,000  Level Boston Center
Fri 09:07:52 AM 41.3769 -72.2133 218° Southwest 405 466 34,000  Level Boston Center
Fri 09:08:52 AM 41.2833 -72.2992 215° Southwest 411 473 34,000  Level Boston Center
Fri 09:09:52 AM 41.1917 -72.3906 217° Southwest 417 480 34,000  Level Boston Center
Fri 09:10:52 AM 41.1042 -72.4758 216° Southwest 411 473 34,000  Level Boston Center
Fri 09:11:52 AM 41.0144 -72.5667 217° Southwest 411 473 34,000 -450 Level Boston Center
Fri 09:12:52 AM 40.9372 -72.6572 222° Southwest 416 479 33,100 -950 Descending Boston Center
Fri 09:13:52 AM 40.8411 -72.7419 214° Southwest 416 479 32,100 -950 Descending Boston Center
Fri 09:14:52 AM 40.7472 -72.8292 215° Southwest 423 487 31,200 -950 Descending Boston Center
Fri 09:15:52 AM 40.6447 -72.9269 216° Southwest 423 487 30,200 -600 Descending Boston Center
Fri 09:16:52 AM 40.5525 -73.0164 216° Southwest 423 487 30,000 -100 Descending Boston Center
Fri 09:17:52 AM 40.4583 -73.1056 216° Southwest 423 487 30,000  Level Boston Center
Fri 09:18:52 AM 40.3619 -73.1972 216° Southwest 429 494 30,000  Level Boston Center
Fri 09:20:29 AM 40.2153 -73.3422 217° Southwest 437 503 30,000  Level Washington Center
Fri 09:21:30 AM 40.1150 -73.4350 215° Southwest 442 509 30,000 -49 Level Washington Center
Fri 09:22:31 AM 40.0125 -73.5328 216° Southwest 442 509 29,900 -101 Descending Washington Center
Fri 09:23:29 AM 39.9222 -73.6192 216° Southwest 427 491 29,800 -504 Descending Washington Center
Fri 09:24:30 AM 39.8381 -73.7000 216° Southwest 402 463 28,900 -1,140 Descending Washington Center
Fri 09:25:30 AM 39.7539 -73.7778 215° Southwest 389 448 27,500 -1,289 Descending Washington Center
Fri 09:26:31 AM 39.6697 -73.8556 215° Southwest 384 442 26,300 -1,109 Descending Washington Center
Fri 09:27:29 AM 39.5917 -73.9328 217° Southwest 373 429 25,300 -1,059 Descending Washington Center
Fri 09:28:30 AM 39.5114 -74.0044 215° Southwest 361 415 24,200 -639 Descending Washington Center
Fri 09:29:31 AM 39.4331 -74.0789 216° Southwest 361 415 24,000 -303 Descending Washington Center
Fri 09:30:29 AM 39.3547 -74.1503 215° Southwest 356 410 23,600 -655 Descending Washington Center
Fri 09:31:30 AM 39.2764 -74.2242 216° Southwest 356 410 22,700 -836 Descending Washington Center
Fri 09:32:31 AM 39.2000 -74.2953 216° Southwest 350 403 21,900 -814 Descending Washington Center
Fri 09:33:28 AM 39.1258 -74.3636 216° Southwest 345 397 21,100 -864 Descending Washington Center
Fri 09:34:29 AM 39.0431 -74.4372 215° Southwest 350 403 20,200 -942 Descending Washington Center
Fri 09:35:29 AM 38.9606 -74.5131 216° Southwest 355 409 19,200 -992 Descending Washington Center
Fri 09:36:30 AM 38.9300 -74.6231 250° West 329 379 18,200 -744 Descending Washington Center
Fri 09:37:30 AM 38.9186 -74.7433 263° West 329 379 17,700 -744 Descending Washington Center
Fri 09:38:31 AM 38.9025 -74.8581 260° West 329 379 16,700 -1,008 Descending Washington Center
Fri 09:39:29 AM 38.8886 -74.9728 261° West 334 384 15,700 -1,008 Descending Washington Center
Fri 09:40:30 AM 38.8767 -75.0850 262° West 334 384 14,700 -885 Descending Washington Center
Fri 09:41:31 AM 38.8625 -75.2025 261° West 334 384 13,900 -397 Descending Washington Center
Fri 09:42:31 AM 38.8503 -75.3144 262° West 334 384 13,900 -454 Level Washington Center
Fri 09:43:30 AM 38.8361 -75.4264 261° West 328 377 13,000 -958 Descending Washington Center
Fri 09:44:30 AM 38.8217 -75.5331 260° West 323 372 12,000 -992 Descending Washington Center
Fri 09:45:31 AM 38.8092 -75.6397 261° West 318 366 11,000 -504 Descending Washington Center
Fri 09:46:29 AM 38.7964 -75.7489 261° West 313 360 11,000  Level Washington Center
Fri 09:47:30 AM 38.7817 -75.8553 260° West 313 360 11,000  Level Washington Center
Fri 09:48:30 AM 38.7689 -75.9617 261° West 313 360 11,000  Level Washington Center
Fri 09:49:31 AM 38.7581 -76.0603 262° West 303 349 11,000 -51 Level Washington Center
Fri 09:50:28 AM 38.7703 -76.1481 280° West 274 315 10,900 -610 Descending Washington Center
Fri 09:51:29 AM 38.7739 -76.2361 273° West 269 310 9,800 -1,279 Descending Washington Center
Fri 09:52:30 AM 38.8153 -76.3056 307° West 245 282 8,300 -1,475 Descending Washington Center
Fri 09:53:31 AM 38.8650 -76.3647 317° Northwest 245 282 6,800 -1,607 Descending Washington Center
Fri 09:54:22 AM 38.9167 -76.4167 322° Northwest 245 282 5,300 -1,459 Descending Potomac TRACON
Fri 09:55:22 AM 38.9667 -76.4833 314° West 239 275 4,100 -650 Descending Potomac TRACON
Fri 09:56:22 AM 39.0167 -76.5333 322° Northwest 221 254 4,000 -800 Descending Potomac TRACON
Fri 09:57:22 AM 39.0667 -76.5667 333° Northwest 203 234 2,500 -1,140 Descending Potomac TRACON
Fri 09:58:23 AM 39.1000 -76.6000 322° Northwest 160 184 1,700 -793 Descending Potomac TRACON
Fri 09:59:23 AM 39.1333 -76.6333 322° Northwest 137 158 900 -800 Descending Potomac TRACON
Fri 10:01:00 AM 39.1667 -76.6667 308° West  Level FlightAware Approximate
Fri 10:08:00 AM 39.1754 -76.6683 308° West  Level Estimated
Fri 10:09:00 AM 39.1754 -76.6683 308° West  Level Estimated
Fri 10:10:00 AM 39.1754 -76.6683 308° West  Level Estimated
Fri 10:11:00 AM 39.1754 -76.6683 308° West  Level Estimated
Fri 10:12:00 AM 39.1754 -76.6683 308° West  Level Estimated
Fri 10:13:00 AM 39.1754 -76.6683 308° West  Level Estimated

Login

Don't have an account? Register now (free) for customized features, flight alerts, and more!